Sign in

Advertising

Info

Aviation weather - KDAB

METAR KDAB 212253Z 09005KT 10SM FEW055 BKN200 24/21 A2994 RMK AO2 SLP138 T02440206

TAF KDAB 211737Z 2118/2218 29006KT P6SM SCT035 SCT250 FM212000 05008KT P6SM SCT040 SCT250 FM220000 VRB03KT P6SM FEW030 BKN250

ADDS Experimental. Do not use for flight-related decisions.

Javascript required. Ce site nécessite javascript